sensor_id;sensor_type;location;lat;lon;timestamp;P1;durP1;ratioP1;P2;durP2;ratioP2
42614;SDS011;28754;47.700;7.924;2022-07-22T00:00:42;4.38;;;2.88;;
42614;SDS011;28754;47.700;7.924;2022-07-22T00:03:30;5.13;;;2.85;;
42614;SDS011;28754;47.700;7.924;2022-07-22T00:06:17;6.70;;;2.97;;
42614;SDS011;28754;47.700;7.924;2022-07-22T00:09:04;4.25;;;2.90;;
42614;SDS011;28754;47.700;7.924;2022-07-22T00:11:51;3.80;;;2.38;;
42614;SDS011;28754;47.700;7.924;2022-07-22T00:14:38;5.35;;;2.85;;
42614;SDS011;28754;47.700;7.924;2022-07-22T00:17:25;6.47;;;3.70;;
42614;SDS011;28754;47.700;7.924;2022-07-22T00:20:12;9.68;;;3.80;;
42614;SDS011;28754;47.700;7.924;2022-07-22T00:22:58;6.03;;;3.10;;
42614;SDS011;28754;47.700;7.924;2022-07-22T00:25:45;4.30;;;2.83;;
42614;SDS011;28754;47.700;7.924;2022-07-22T00:28:32;3.47;;;2.70;;
42614;SDS011;28754;47.700;7.924;2022-07-22T00:31:18;4.90;;;3.15;;
42614;SDS011;28754;47.700;7.924;2022-07-22T00:34:05;3.33;;;2.75;;
42614;SDS011;28754;47.700;7.924;2022-07-22T00:36:52;4.65;;;3.75;;
42614;SDS011;28754;47.700;7.924;2022-07-22T00:39:40;5.07;;;4.05;;
42614;SDS011;28754;47.700;7.924;2022-07-22T00:42:27;8.48;;;5.00;;
42614;SDS011;28754;47.700;7.924;2022-07-22T00:45:13;5.43;;;3.00;;
42614;SDS011;28754;47.700;7.924;2022-07-22T00:48:00;4.03;;;3.30;;
42614;SDS011;28754;47.700;7.924;2022-07-22T00:50:47;5.75;;;3.50;;
42614;SDS011;28754;47.700;7.924;2022-07-22T00:53:34;5.70;;;3.65;;
42614;SDS011;28754;47.700;7.924;2022-07-22T00:56:21;3.17;;;2.70;;
42614;SDS011;28754;47.700;7.924;2022-07-22T00:59:08;7.35;;;3.22;;
42614;SDS011;28754;47.700;7.924;2022-07-22T01:01:58;7.28;;;3.42;;
42614;SDS011;28754;47.700;7.924;2022-07-22T01:04:45;4.78;;;3.28;;
42614;SDS011;28754;47.700;7.924;2022-07-22T01:07:33;5.28;;;3.10;;
42614;SDS011;28754;47.700;7.924;2022-07-22T01:10:20;5.82;;;3.33;;
42614;SDS011;28754;47.700;7.924;2022-07-22T01:13:07;4.47;;;3.13;;
42614;SDS011;28754;47.700;7.924;2022-07-22T01:15:54;5.50;;;3.78;;
42614;SDS011;28754;47.700;7.924;2022-07-22T01:18:41;4.53;;;3.05;;
42614;SDS011;28754;47.700;7.924;2022-07-22T01:21:29;6.60;;;3.65;;
42614;SDS011;28754;47.700;7.924;2022-07-22T01:24:17;7.22;;;3.63;;
42614;SDS011;28754;47.700;7.924;2022-07-22T01:27:04;6.57;;;4.00;;
42614;SDS011;28754;47.700;7.924;2022-07-22T01:29:51;5.43;;;3.70;;
42614;SDS011;28754;47.700;7.924;2022-07-22T01:32:37;5.70;;;3.58;;
42614;SDS011;28754;47.700;7.924;2022-07-22T01:35:24;6.68;;;3.92;;
42614;SDS011;28754;47.700;7.924;2022-07-22T01:38:12;5.45;;;3.92;;
42614;SDS011;28754;47.700;7.924;2022-07-22T01:41:00;6.97;;;3.47;;
42614;SDS011;28754;47.700;7.924;2022-07-22T01:43:48;9.65;;;3.88;;
42614;SDS011;28754;47.700;7.924;2022-07-22T01:46:35;8.25;;;3.80;;
42614;SDS011;28754;47.700;7.924;2022-07-22T01:49:22;5.63;;;3.35;;
42614;SDS011;28754;47.700;7.924;2022-07-22T01:52:09;5.55;;;3.22;;
42614;SDS011;28754;47.700;7.924;2022-07-22T01:54:55;4.43;;;3.03;;
42614;SDS011;28754;47.700;7.924;2022-07-22T01:57:42;4.15;;;3.08;;
42614;SDS011;28754;47.700;7.924;2022-07-22T02:00:38;5.82;;;3.13;;
42614;SDS011;28754;47.700;7.924;2022-07-22T02:03:27;6.88;;;3.67;;
42614;SDS011;28754;47.700;7.924;2022-07-22T02:06:17;6.63;;;3.75;;
42614;SDS011;28754;47.700;7.924;2022-07-22T02:09:05;4.15;;;3.38;;
42614;SDS011;28754;47.700;7.924;2022-07-22T02:12:04;6.38;;;3.15;;
42614;SDS011;28754;47.700;7.924;2022-07-22T02:14:58;5.70;;;4.03;;
42614;SDS011;28754;47.700;7.924;2022-07-22T02:17:45;5.28;;;3.88;;
42614;SDS011;28754;47.700;7.924;2022-07-22T02:20:31;4.68;;;3.72;;
42614;SDS011;28754;47.700;7.924;2022-07-22T02:23:20;5.50;;;4.03;;
42614;SDS011;28754;47.700;7.924;2022-07-22T02:26:07;5.78;;;4.25;;
42614;SDS011;28754;47.700;7.924;2022-07-22T02:28:53;5.53;;;3.40;;
42614;SDS011;28754;47.700;7.924;2022-07-22T02:31:41;5.20;;;3.70;;
42614;SDS011;28754;47.700;7.924;2022-07-22T02:34:28;5.72;;;3.83;;
42614;SDS011;28754;47.700;7.924;2022-07-22T02:37:15;3.72;;;3.33;;
42614;SDS011;28754;47.700;7.924;2022-07-22T02:40:02;5.82;;;3.72;;
42614;SDS011;28754;47.700;7.924;2022-07-22T02:42:52;5.55;;;3.63;;
42614;SDS011;28754;47.700;7.924;2022-07-22T02:45:39;5.25;;;3.92;;
42614;SDS011;28754;47.700;7.924;2022-07-22T02:48:26;6.45;;;3.88;;
42614;SDS011;28754;47.700;7.924;2022-07-22T02:51:14;5.53;;;4.10;;
42614;SDS011;28754;47.700;7.924;2022-07-22T02:54:00;6.07;;;4.13;;
42614;SDS011;28754;47.700;7.924;2022-07-22T02:56:47;5.63;;;4.25;;
42614;SDS011;28754;47.700;7.924;2022-07-22T02:59:34;6.57;;;4.13;;
42614;SDS011;28754;47.700;7.924;2022-07-22T03:02:21;7.03;;;3.78;;
42614;SDS011;28754;47.700;7.924;2022-07-22T03:05:08;7.68;;;4.22;;
42614;SDS011;28754;47.700;7.924;2022-07-22T03:08:01;5.53;;;4.40;;
42614;SDS011;28754;47.700;7.924;2022-07-22T03:10:48;6.95;;;4.18;;
42614;SDS011;28754;47.700;7.924;2022-07-22T03:13:35;6.43;;;4.18;;
42614;SDS011;28754;47.700;7.924;2022-07-22T03:16:22;5.95;;;4.43;;
42614;SDS011;28754;47.700;7.924;2022-07-22T03:19:08;4.80;;;4.30;;
42614;SDS011;28754;47.700;7.924;2022-07-22T03:21:55;6.28;;;3.80;;
42614;SDS011;28754;47.700;7.924;2022-07-22T03:24:42;5.55;;;3.85;;
42614;SDS011;28754;47.700;7.924;2022-07-22T03:27:29;6.35;;;4.50;;
42614;SDS011;28754;47.700;7.924;2022-07-22T03:30:16;8.73;;;4.13;;
42614;SDS011;28754;47.700;7.924;2022-07-22T03:33:03;5.43;;;4.25;;
42614;SDS011;28754;47.700;7.924;2022-07-22T03:35:54;6.63;;;4.72;;
42614;SDS011;28754;47.700;7.924;2022-07-22T03:38:42;6.32;;;3.88;;
42614;SDS011;28754;47.700;7.924;2022-07-22T03:41:29;8.50;;;4.35;;
42614;SDS011;28754;47.700;7.924;2022-07-22T03:44:16;8.88;;;4.38;;
42614;SDS011;28754;47.700;7.924;2022-07-22T03:47:03;5.20;;;4.35;;
42614;SDS011;28754;47.700;7.924;2022-07-22T03:49:49;9.85;;;4.45;;
42614;SDS011;28754;47.700;7.924;2022-07-22T03:52:43;7.32;;;3.78;;
42614;SDS011;28754;47.700;7.924;2022-07-22T03:55:31;4.95;;;4.10;;
42614;SDS011;28754;47.700;7.924;2022-07-22T03:58:19;5.57;;;3.78;;
42614;SDS011;28754;47.700;7.924;2022-07-22T04:01:06;4.82;;;4.30;;
42614;SDS011;28754;47.700;7.924;2022-07-22T04:03:52;4.97;;;3.72;;
42614;SDS011;28754;47.700;7.924;2022-07-22T04:06:49;5.28;;;4.28;;
42614;SDS011;28754;47.700;7.924;2022-07-22T04:12:34;5.85;;;4.10;;
42614;SDS011;28754;47.700;7.924;2022-07-22T04:15:37;6.35;;;4.80;;
42614;SDS011;28754;47.700;7.924;2022-07-22T04:18:23;6.95;;;4.82;;
42614;SDS011;28754;47.700;7.924;2022-07-22T04:21:10;9.38;;;5.43;;
42614;SDS011;28754;47.700;7.924;2022-07-22T04:24:13;5.25;;;4.35;;
42614;SDS011;28754;47.700;7.924;2022-07-22T04:27:00;9.20;;;4.68;;
42614;SDS011;28754;47.700;7.924;2022-07-22T04:29:46;4.72;;;3.88;;
42614;SDS011;28754;47.700;7.924;2022-07-22T04:32:34;7.05;;;4.70;;
42614;SDS011;28754;47.700;7.924;2022-07-22T04:35:22;5.07;;;4.15;;
42614;SDS011;28754;47.700;7.924;2022-07-22T04:38:28;6.22;;;4.57;;
42614;SDS011;28754;47.700;7.924;2022-07-22T04:41:19;6.18;;;4.85;;
42614;SDS011;28754;47.700;7.924;2022-07-22T04:44:06;5.10;;;4.10;;
42614;SDS011;28754;47.700;7.924;2022-07-22T04:46:53;5.72;;;4.72;;
42614;SDS011;28754;47.700;7.924;2022-07-22T04:49:40;10.35;;;4.38;;
42614;SDS011;28754;47.700;7.924;2022-07-22T04:52:29;5.53;;;4.65;;
42614;SDS011;28754;47.700;7.924;2022-07-22T04:55:16;7.70;;;4.22;;
42614;SDS011;28754;47.700;7.924;2022-07-22T04:58:03;5.45;;;4.47;;
42614;SDS011;28754;47.700;7.924;2022-07-22T05:00:49;5.85;;;4.28;;
42614;SDS011;28754;47.700;7.924;2022-07-22T05:03:37;11.10;;;4.63;;
42614;SDS011;28754;47.700;7.924;2022-07-22T05:06:25;7.95;;;6.07;;
42614;SDS011;28754;47.700;7.924;2022-07-22T05:09:13;6.47;;;4.75;;
42614;SDS011;28754;47.700;7.924;2022-07-22T05:12:00;7.13;;;5.05;;
42614;SDS011;28754;47.700;7.924;2022-07-22T05:14:47;7.20;;;5.25;;
42614;SDS011;28754;47.700;7.924;2022-07-22T05:17:34;6.72;;;5.05;;
42614;SDS011;28754;47.700;7.924;2022-07-22T05:20:50;6.70;;;5.63;;
42614;SDS011;28754;47.700;7.924;2022-07-22T05:23:36;6.43;;;4.93;;
42614;SDS011;28754;47.700;7.924;2022-07-22T05:26:23;8.45;;;5.82;;
42614;SDS011;28754;47.700;7.924;2022-07-22T05:29:10;6.03;;;4.57;;
42614;SDS011;28754;47.700;7.924;2022-07-22T05:31:57;8.57;;;4.85;;
42614;SDS011;28754;47.700;7.924;2022-07-22T05:34:44;7.35;;;5.80;;
42614;SDS011;28754;47.700;7.924;2022-07-22T05:37:32;6.53;;;4.88;;
42614;SDS011;28754;47.700;7.924;2022-07-22T05:40:19;6.43;;;4.95;;
42614;SDS011;28754;47.700;7.924;2022-07-22T05:43:07;6.55;;;5.13;;
42614;SDS011;28754;47.700;7.924;2022-07-22T05:45:54;9.68;;;6.57;;
42614;SDS011;28754;47.700;7.924;2022-07-22T05:48:41;10.32;;;6.32;;
42614;SDS011;28754;47.700;7.924;2022-07-22T05:51:28;7.97;;;5.35;;
42614;SDS011;28754;47.700;7.924;2022-07-22T05:54:15;8.90;;;5.82;;
42614;SDS011;28754;47.700;7.924;2022-07-22T05:57:02;6.95;;;4.72;;
42614;SDS011;28754;47.700;7.924;2022-07-22T05:59:49;12.57;;;5.13;;
42614;SDS011;28754;47.700;7.924;2022-07-22T06:02:36;5.03;;;4.53;;
42614;SDS011;28754;47.700;7.924;2022-07-22T06:05:23;5.88;;;4.68;;
42614;SDS011;28754;47.700;7.924;2022-07-22T06:08:10;6.88;;;4.45;;
42614;SDS011;28754;47.700;7.924;2022-07-22T06:11:07;5.43;;;4.53;;
42614;SDS011;28754;47.700;7.924;2022-07-22T06:13:53;6.43;;;3.72;;
42614;SDS011;28754;47.700;7.924;2022-07-22T06:16:40;10.20;;;5.40;;
42614;SDS011;28754;47.700;7.924;2022-07-22T06:19:27;7.20;;;4.70;;
42614;SDS011;28754;47.700;7.924;2022-07-22T06:22:15;6.00;;;3.97;;
42614;SDS011;28754;47.700;7.924;2022-07-22T06:25:03;8.50;;;4.20;;
42614;SDS011;28754;47.700;7.924;2022-07-22T06:27:51;7.03;;;5.28;;
42614;SDS011;28754;47.700;7.924;2022-07-22T06:30:38;10.18;;;4.82;;
42614;SDS011;28754;47.700;7.924;2022-07-22T06:33:26;6.40;;;4.72;;
42614;SDS011;28754;47.700;7.924;2022-07-22T06:36:12;7.85;;;5.03;;
42614;SDS011;28754;47.700;7.924;2022-07-22T06:39:00;9.02;;;5.22;;
42614;SDS011;28754;47.700;7.924;2022-07-22T06:42:04;7.93;;;6.00;;
42614;SDS011;28754;47.700;7.924;2022-07-22T06:45:11;7.22;;;5.95;;
42614;SDS011;28754;47.700;7.924;2022-07-22T06:48:24;10.32;;;5.95;;
42614;SDS011;28754;47.700;7.924;2022-07-22T06:51:11;8.32;;;5.60;;
42614;SDS011;28754;47.700;7.924;2022-07-22T06:53:58;6.00;;;5.40;;
42614;SDS011;28754;47.700;7.924;2022-07-22T06:56:44;6.15;;;5.05;;
42614;SDS011;28754;47.700;7.924;2022-07-22T06:59:37;5.68;;;4.68;;
42614;SDS011;28754;47.700;7.924;2022-07-22T07:02:28;8.20;;;5.22;;
42614;SDS011;28754;47.700;7.924;2022-07-22T07:05:15;6.82;;;5.22;;
42614;SDS011;28754;47.700;7.924;2022-07-22T07:08:02;7.28;;;5.07;;
42614;SDS011;28754;47.700;7.924;2022-07-22T07:10:49;7.38;;;5.43;;
42614;SDS011;28754;47.700;7.924;2022-07-22T07:13:36;10.88;;;6.25;;
42614;SDS011;28754;47.700;7.924;2022-07-22T07:16:23;6.80;;;4.97;;
42614;SDS011;28754;47.700;7.924;2022-07-22T07:19:10;6.60;;;5.10;;
42614;SDS011;28754;47.700;7.924;2022-07-22T07:21:57;6.15;;;5.07;;
42614;SDS011;28754;47.700;7.924;2022-07-22T07:24:43;5.80;;;5.18;;
42614;SDS011;28754;47.700;7.924;2022-07-22T07:27:30;7.63;;;5.10;;
42614;SDS011;28754;47.700;7.924;2022-07-22T07:30:17;7.03;;;5.18;;
42614;SDS011;28754;47.700;7.924;2022-07-22T07:33:04;6.47;;;4.38;;
42614;SDS011;28754;47.700;7.924;2022-07-22T07:35:51;8.75;;;5.82;;
42614;SDS011;28754;47.700;7.924;2022-07-22T07:38:46;7.40;;;5.13;;
42614;SDS011;28754;47.700;7.924;2022-07-22T07:41:35;6.13;;;4.40;;
42614;SDS011;28754;47.700;7.924;2022-07-22T07:44:22;5.60;;;4.93;;
42614;SDS011;28754;47.700;7.924;2022-07-22T07:47:09;5.88;;;4.22;;
42614;SDS011;28754;47.700;7.924;2022-07-22T07:49:56;6.03;;;4.93;;
42614;SDS011;28754;47.700;7.924;2022-07-22T07:52:46;6.03;;;4.85;;
42614;SDS011;28754;47.700;7.924;2022-07-22T07:55:35;7.05;;;4.78;;
42614;SDS011;28754;47.700;7.924;2022-07-22T07:58:24;8.90;;;4.88;;
42614;SDS011;28754;47.700;7.924;2022-07-22T08:01:10;7.82;;;5.85;;
42614;SDS011;28754;47.700;7.924;2022-07-22T08:03:58;6.65;;;5.45;;
42614;SDS011;28754;47.700;7.924;2022-07-22T08:06:44;7.05;;;5.13;;
42614;SDS011;28754;47.700;7.924;2022-07-22T08:09:32;10.35;;;5.55;;
42614;SDS011;28754;47.700;7.924;2022-07-22T08:12:23;5.80;;;4.85;;
42614;SDS011;28754;47.700;7.924;2022-07-22T08:15:29;6.68;;;5.97;;
42614;SDS011;28754;47.700;7.924;2022-07-22T08:18:20;9.88;;;5.65;;
42614;SDS011;28754;47.700;7.924;2022-07-22T08:21:07;8.80;;;6.32;;
42614;SDS011;28754;47.700;7.924;2022-07-22T08:24:00;6.93;;;5.43;;
42614;SDS011;28754;47.700;7.924;2022-07-22T08:26:47;11.32;;;6.50;;
42614;SDS011;28754;47.700;7.924;2022-07-22T08:29:35;7.38;;;5.80;;
42614;SDS011;28754;47.700;7.924;2022-07-22T08:32:21;6.40;;;5.13;;
42614;SDS011;28754;47.700;7.924;2022-07-22T08:35:09;8.60;;;5.82;;
42614;SDS011;28754;47.700;7.924;2022-07-22T08:37:57;6.38;;;5.05;;
42614;SDS011;28754;47.700;7.924;2022-07-22T08:40:44;9.00;;;5.63;;
42614;SDS011;28754;47.700;7.924;2022-07-22T08:43:34;6.45;;;5.00;;
42614;SDS011;28754;47.700;7.924;2022-07-22T08:46:25;7.07;;;5.65;;
42614;SDS011;28754;47.700;7.924;2022-07-22T08:49:32;5.85;;;5.20;;
42614;SDS011;28754;47.700;7.924;2022-07-22T08:52:45;8.07;;;5.43;;
42614;SDS011;28754;47.700;7.924;2022-07-22T08:55:32;13.15;;;5.32;;
42614;SDS011;28754;47.700;7.924;2022-07-22T08:58:19;9.32;;;5.22;;
42614;SDS011;28754;47.700;7.924;2022-07-22T09:01:10;7.13;;;5.55;;
42614;SDS011;28754;47.700;7.924;2022-07-22T09:04:05;7.80;;;5.72;;
42614;SDS011;28754;47.700;7.924;2022-07-22T09:06:55;7.57;;;5.13;;
42614;SDS011;28754;47.700;7.924;2022-07-22T09:09:41;7.53;;;5.40;;
42614;SDS011;28754;47.700;7.924;2022-07-22T09:12:58;8.25;;;5.18;;
42614;SDS011;28754;47.700;7.924;2022-07-22T09:16:14;9.50;;;5.22;;
42614;SDS011;28754;47.700;7.924;2022-07-22T09:19:31;5.15;;;4.65;;
42614;SDS011;28754;47.700;7.924;2022-07-22T09:22:45;5.53;;;4.78;;
42614;SDS011;28754;47.700;7.924;2022-07-22T09:25:41;5.88;;;5.05;;
42614;SDS011;28754;47.700;7.924;2022-07-22T09:29:04;7.30;;;5.35;;
42614;SDS011;28754;47.700;7.924;2022-07-22T09:32:06;7.03;;;5.90;;
42614;SDS011;28754;47.700;7.924;2022-07-22T09:35:13;6.85;;;5.45;;
42614;SDS011;28754;47.700;7.924;2022-07-22T09:38:07;7.23;;;5.67;;
42614;SDS011;28754;47.700;7.924;2022-07-22T09:40:58;8.15;;;5.32;;
42614;SDS011;28754;47.700;7.924;2022-07-22T09:43:45;6.95;;;4.97;;
42614;SDS011;28754;47.700;7.924;2022-07-22T09:46:37;7.07;;;4.97;;
42614;SDS011;28754;47.700;7.924;2022-07-22T09:52:48;6.95;;;4.53;;
42614;SDS011;28754;47.700;7.924;2022-07-22T09:55:45;6.93;;;5.22;;
42614;SDS011;28754;47.700;7.924;2022-07-22T09:58:32;6.53;;;5.07;;
42614;SDS011;28754;47.700;7.924;2022-07-22T10:01:20;7.40;;;5.10;;
42614;SDS011;28754;47.700;7.924;2022-07-22T10:04:07;5.50;;;4.82;;
42614;SDS011;28754;47.700;7.924;2022-07-22T10:06:56;6.35;;;5.10;;
42614;SDS011;28754;47.700;7.924;2022-07-22T10:09:51;7.95;;;4.70;;
42614;SDS011;28754;47.700;7.924;2022-07-22T10:12:39;12.00;;;7.03;;
42614;SDS011;28754;47.700;7.924;2022-07-22T10:15:28;5.60;;;4.80;;
42614;SDS011;28754;47.700;7.924;2022-07-22T10:18:17;8.02;;;6.10;;
42614;SDS011;28754;47.700;7.924;2022-07-22T10:21:08;8.50;;;4.78;;
42614;SDS011;28754;47.700;7.924;2022-07-22T10:24:17;8.52;;;4.57;;
42614;SDS011;28754;47.700;7.924;2022-07-22T10:27:09;4.80;;;4.10;;
42614;SDS011;28754;47.700;7.924;2022-07-22T10:29:56;4.75;;;4.30;;
42614;SDS011;28754;47.700;7.924;2022-07-22T10:32:54;8.20;;;4.38;;
42614;SDS011;28754;47.700;7.924;2022-07-22T10:36:03;5.45;;;4.53;;
42614;SDS011;28754;47.700;7.924;2022-07-22T10:39:10;5.53;;;4.28;;
42614;SDS011;28754;47.700;7.924;2022-07-22T10:41:59;5.85;;;4.25;;
42614;SDS011;28754;47.700;7.924;2022-07-22T10:44:47;8.32;;;4.60;;
42614;SDS011;28754;47.700;7.924;2022-07-22T10:50:52;7.32;;;4.25;;
42614;SDS011;28754;47.700;7.924;2022-07-22T10:54:02;6.82;;;4.95;;
42614;SDS011;28754;47.700;7.924;2022-07-22T10:56:52;6.73;;;5.33;;
42614;SDS011;28754;47.700;7.924;2022-07-22T10:59:40;6.70;;;4.93;;
42614;SDS011;28754;47.700;7.924;2022-07-22T11:07:06;5.88;;;4.45;;
42614;SDS011;28754;47.700;7.924;2022-07-22T11:18:16;5.22;;;4.57;;
42614;SDS011;28754;47.700;7.924;2022-07-22T11:21:03;5.68;;;4.65;;
42614;SDS011;28754;47.700;7.924;2022-07-22T11:27:38;5.88;;;4.32;;
42614;SDS011;28754;47.700;7.924;2022-07-22T11:30:38;6.30;;;4.93;;
42614;SDS011;28754;47.700;7.924;2022-07-22T11:33:27;9.43;;;5.00;;
42614;SDS011;28754;47.700;7.924;2022-07-22T11:36:14;8.05;;;4.85;;
42614;SDS011;28754;47.700;7.924;2022-07-22T11:39:02;5.47;;;4.70;;
42614;SDS011;28754;47.700;7.924;2022-07-22T11:42:24;6.05;;;5.13;;
42614;SDS011;28754;47.700;7.924;2022-07-22T11:45:11;7.53;;;4.93;;
42614;SDS011;28754;47.700;7.924;2022-07-22T11:47:58;8.57;;;4.95;;
42614;SDS011;28754;47.700;7.924;2022-07-22T11:51:01;5.95;;;4.28;;
42614;SDS011;28754;47.700;7.924;2022-07-22T11:53:49;5.97;;;4.20;;
42614;SDS011;28754;47.700;7.924;2022-07-22T11:59:27;8.73;;;4.55;;
42614;SDS011;28754;47.700;7.924;2022-07-22T12:02:14;6.60;;;4.22;;
42614;SDS011;28754;47.700;7.924;2022-07-22T12:05:08;7.10;;;5.05;;
42614;SDS011;28754;47.700;7.924;2022-07-22T12:36:46;9.02;;;5.03;;
42614;SDS011;28754;47.700;7.924;2022-07-22T12:39:59;6.43;;;4.60;;
42614;SDS011;28754;47.700;7.924;2022-07-22T12:43:07;11.65;;;5.32;;
42614;SDS011;28754;47.700;7.924;2022-07-22T12:46:03;6.63;;;4.85;;
42614;SDS011;28754;47.700;7.924;2022-07-22T12:50:14;4.53;;;4.13;;
42614;SDS011;28754;47.700;7.924;2022-07-22T12:53:16;4.60;;;4.20;;
42614;SDS011;28754;47.700;7.924;2022-07-22T12:56:12;6.20;;;3.97;;
42614;SDS011;28754;47.700;7.924;2022-07-22T12:59:10;4.68;;;3.60;;
42614;SDS011;28754;47.700;7.924;2022-07-22T13:02:03;4.88;;;4.05;;
42614;SDS011;28754;47.700;7.924;2022-07-22T13:04:52;4.55;;;3.55;;
42614;SDS011;28754;47.700;7.924;2022-07-22T13:07:39;4.40;;;3.60;;
42614;SDS011;28754;47.700;7.924;2022-07-22T13:10:27;5.03;;;3.22;;
42614;SDS011;28754;47.700;7.924;2022-07-22T13:13:14;5.03;;;3.35;;
42614;SDS011;28754;47.700;7.924;2022-07-22T13:16:01;3.72;;;3.33;;
42614;SDS011;28754;47.700;7.924;2022-07-22T13:18:49;4.43;;;4.03;;
42614;SDS011;28754;47.700;7.924;2022-07-22T13:21:37;4.53;;;4.13;;
42614;SDS011;28754;47.700;7.924;2022-07-22T13:24:23;4.90;;;3.67;;
42614;SDS011;28754;47.700;7.924;2022-07-22T13:27:10;4.82;;;3.90;;
42614;SDS011;28754;47.700;7.924;2022-07-22T13:29:57;5.03;;;3.40;;
42614;SDS011;28754;47.700;7.924;2022-07-22T13:32:44;4.07;;;3.55;;
42614;SDS011;28754;47.700;7.924;2022-07-22T13:35:31;7.28;;;3.70;;
42614;SDS011;28754;47.700;7.924;2022-07-22T13:38:18;8.65;;;4.65;;
42614;SDS011;28754;47.700;7.924;2022-07-22T13:41:04;4.40;;;3.45;;
42614;SDS011;28754;47.700;7.924;2022-07-22T13:44:02;5.00;;;4.25;;
42614;SDS011;28754;47.700;7.924;2022-07-22T13:46:52;5.10;;;4.10;;
42614;SDS011;28754;47.700;7.924;2022-07-22T13:49:39;3.42;;;2.95;;
42614;SDS011;28754;47.700;7.924;2022-07-22T13:52:26;4.28;;;3.75;;
42614;SDS011;28754;47.700;7.924;2022-07-22T13:55:13;4.25;;;3.60;;
42614;SDS011;28754;47.700;7.924;2022-07-22T13:58:02;4.25;;;3.72;;
42614;SDS011;28754;47.700;7.924;2022-07-22T14:00:51;5.93;;;4.03;;
42614;SDS011;28754;47.700;7.924;2022-07-22T14:03:38;4.57;;;3.55;;
42614;SDS011;28754;47.700;7.924;2022-07-22T14:06:25;4.50;;;3.25;;
42614;SDS011;28754;47.700;7.924;2022-07-22T14:09:12;4.75;;;3.38;;
42614;SDS011;28754;47.700;7.924;2022-07-22T14:11:58;4.63;;;4.05;;
42614;SDS011;28754;47.700;7.924;2022-07-22T14:14:45;4.03;;;3.40;;
42614;SDS011;28754;47.700;7.924;2022-07-22T14:17:32;4.63;;;3.90;;
42614;SDS011;28754;47.700;7.924;2022-07-22T14:20:19;5.80;;;4.10;;
42614;SDS011;28754;47.700;7.924;2022-07-22T14:23:06;4.28;;;3.80;;
42614;SDS011;28754;47.700;7.924;2022-07-22T14:25:55;4.35;;;3.88;;
42614;SDS011;28754;47.700;7.924;2022-07-22T14:28:42;4.13;;;3.72;;
42614;SDS011;28754;47.700;7.924;2022-07-22T14:31:34;5.40;;;4.60;;
42614;SDS011;28754;47.700;7.924;2022-07-22T14:34:26;6.70;;;4.97;;
42614;SDS011;28754;47.700;7.924;2022-07-22T14:37:12;5.55;;;4.28;;
42614;SDS011;28754;47.700;7.924;2022-07-22T14:40:13;5.13;;;4.05;;
42614;SDS011;28754;47.700;7.924;2022-07-22T14:47:52;3.40;;;3.10;;
42614;SDS011;28754;47.700;7.924;2022-07-22T14:50:42;5.75;;;4.10;;
42614;SDS011;28754;47.700;7.924;2022-07-22T14:53:34;6.55;;;4.68;;
42614;SDS011;28754;47.700;7.924;2022-07-22T14:56:39;5.80;;;3.80;;
42614;SDS011;28754;47.700;7.924;2022-07-22T14:59:49;4.95;;;4.25;;
42614;SDS011;28754;47.700;7.924;2022-07-22T15:03:01;7.53;;;4.45;;
42614;SDS011;28754;47.700;7.924;2022-07-22T15:10:33;5.47;;;4.85;;
42614;SDS011;28754;47.700;7.924;2022-07-22T15:22:06;6.25;;;5.18;;
42614;SDS011;28754;47.700;7.924;2022-07-22T15:26:14;5.95;;;5.20;;
42614;SDS011;28754;47.700;7.924;2022-07-22T15:29:14;6.28;;;4.57;;
42614;SDS011;28754;47.700;7.924;2022-07-22T15:32:01;5.45;;;4.57;;
42614;SDS011;28754;47.700;7.924;2022-07-22T15:34:51;7.75;;;6.15;;
42614;SDS011;28754;47.700;7.924;2022-07-22T15:37:40;6.57;;;5.05;;
42614;SDS011;28754;47.700;7.924;2022-07-22T15:40:27;6.18;;;4.82;;
42614;SDS011;28754;47.700;7.924;2022-07-22T15:43:14;5.57;;;5.00;;
42614;SDS011;28754;47.700;7.924;2022-07-22T15:46:01;7.85;;;5.18;;
42614;SDS011;28754;47.700;7.924;2022-07-22T15:48:47;7.03;;;5.25;;
42614;SDS011;28754;47.700;7.924;2022-07-22T15:51:35;7.72;;;4.78;;
42614;SDS011;28754;47.700;7.924;2022-07-22T15:54:22;6.75;;;4.90;;
42614;SDS011;28754;47.700;7.924;2022-07-22T15:57:13;5.18;;;4.55;;
42614;SDS011;28754;47.700;7.924;2022-07-22T16:00:44;8.52;;;5.07;;
42614;SDS011;28754;47.700;7.924;2022-07-22T16:04:21;6.40;;;5.22;;
42614;SDS011;28754;47.700;7.924;2022-07-22T16:07:29;8.15;;;5.30;;
42614;SDS011;28754;47.700;7.924;2022-07-22T16:20:21;7.97;;;5.53;;
42614;SDS011;28754;47.700;7.924;2022-07-22T16:23:11;6.07;;;4.47;;
42614;SDS011;28754;47.700;7.924;2022-07-22T16:26:03;7.70;;;5.00;;
42614;SDS011;28754;47.700;7.924;2022-07-22T16:28:50;7.75;;;5.18;;
42614;SDS011;28754;47.700;7.924;2022-07-22T16:31:37;7.63;;;5.20;;
42614;SDS011;28754;47.700;7.924;2022-07-22T16:34:24;4.57;;;4.18;;
42614;SDS011;28754;47.700;7.924;2022-07-22T16:37:10;6.50;;;5.65;;
42614;SDS011;28754;47.700;7.924;2022-07-22T16:39:57;8.05;;;5.00;;
42614;SDS011;28754;47.700;7.924;2022-07-22T16:42:44;5.55;;;4.85;;
42614;SDS011;28754;47.700;7.924;2022-07-22T16:45:30;5.97;;;4.43;;
42614;SDS011;28754;47.700;7.924;2022-07-22T16:48:17;6.60;;;4.53;;
42614;SDS011;28754;47.700;7.924;2022-07-22T16:51:04;5.55;;;4.70;;
42614;SDS011;28754;47.700;7.924;2022-07-22T16:53:51;7.50;;;4.60;;
42614;SDS011;28754;47.700;7.924;2022-07-22T16:56:37;6.57;;;4.82;;
42614;SDS011;28754;47.700;7.924;2022-07-22T16:59:24;4.72;;;4.22;;
42614;SDS011;28754;47.700;7.924;2022-07-22T17:02:11;5.88;;;5.10;;
42614;SDS011;28754;47.700;7.924;2022-07-22T17:04:58;4.82;;;4.32;;
42614;SDS011;28754;47.700;7.924;2022-07-22T17:07:45;5.25;;;4.18;;
42614;SDS011;28754;47.700;7.924;2022-07-22T17:10:31;6.63;;;5.05;;
42614;SDS011;28754;47.700;7.924;2022-07-22T17:13:18;5.82;;;4.70;;
42614;SDS011;28754;47.700;7.924;2022-07-22T17:16:05;7.75;;;5.00;;
42614;SDS011;28754;47.700;7.924;2022-07-22T17:18:52;11.57;;;5.05;;
42614;SDS011;28754;47.700;7.924;2022-07-22T17:21:39;6.45;;;5.13;;
42614;SDS011;28754;47.700;7.924;2022-07-22T17:24:26;6.25;;;4.80;;
42614;SDS011;28754;47.700;7.924;2022-07-22T17:27:15;6.50;;;5.30;;
42614;SDS011;28754;47.700;7.924;2022-07-22T17:30:03;7.15;;;5.35;;
42614;SDS011;28754;47.700;7.924;2022-07-22T17:32:50;6.90;;;5.30;;
42614;SDS011;28754;47.700;7.924;2022-07-22T17:35:38;9.25;;;5.13;;
42614;SDS011;28754;47.700;7.924;2022-07-22T17:38:27;5.25;;;4.63;;
42614;SDS011;28754;47.700;7.924;2022-07-22T17:41:14;6.43;;;4.80;;
42614;SDS011;28754;47.700;7.924;2022-07-22T17:44:00;4.93;;;4.05;;
42614;SDS011;28754;47.700;7.924;2022-07-22T17:46:47;6.07;;;5.20;;
42614;SDS011;28754;47.700;7.924;2022-07-22T17:49:34;7.53;;;4.65;;
42614;SDS011;28754;47.700;7.924;2022-07-22T17:52:21;5.60;;;4.47;;
42614;SDS011;28754;47.700;7.924;2022-07-22T17:55:07;7.15;;;5.13;;
42614;SDS011;28754;47.700;7.924;2022-07-22T17:57:54;5.80;;;5.18;;
42614;SDS011;28754;47.700;7.924;2022-07-22T18:00:41;7.13;;;4.97;;
42614;SDS011;28754;47.700;7.924;2022-07-22T18:03:28;6.18;;;4.75;;
42614;SDS011;28754;47.700;7.924;2022-07-22T18:06:14;7.30;;;4.82;;
42614;SDS011;28754;47.700;7.924;2022-07-22T18:09:02;5.90;;;4.53;;
42614;SDS011;28754;47.700;7.924;2022-07-22T18:11:49;8.63;;;4.60;;
42614;SDS011;28754;47.700;7.924;2022-07-22T18:14:35;8.23;;;5.07;;
42614;SDS011;28754;47.700;7.924;2022-07-22T18:17:22;9.13;;;5.75;;
42614;SDS011;28754;47.700;7.924;2022-07-22T18:20:11;4.95;;;4.28;;
42614;SDS011;28754;47.700;7.924;2022-07-22T18:22:58;6.63;;;4.75;;
42614;SDS011;28754;47.700;7.924;2022-07-22T18:25:45;7.53;;;5.05;;
42614;SDS011;28754;47.700;7.924;2022-07-22T18:28:32;5.55;;;4.57;;
42614;SDS011;28754;47.700;7.924;2022-07-22T18:31:19;6.53;;;5.20;;
42614;SDS011;28754;47.700;7.924;2022-07-22T18:34:05;7.38;;;4.70;;